createdAt,value
2018-09-20T00:02:15.058Z,7.00
2018-09-20T00:04:43.973Z,7.23
2018-09-20T00:07:13.596Z,7.30
2018-09-20T00:09:42.493Z,7.87
2018-09-20T00:12:11.562Z,7.77
2018-09-20T00:14:41.153Z,7.37
2018-09-20T00:17:10.460Z,6.90
2018-09-20T00:19:40.294Z,7.37
2018-09-20T00:22:10.087Z,8.10
2018-09-20T00:24:39.559Z,7.60
2018-09-20T00:27:08.651Z,7.70
2018-09-20T00:29:37.580Z,7.50
2018-09-20T00:32:06.978Z,7.87
2018-09-20T00:34:36.027Z,8.30
2018-09-20T00:37:05.160Z,7.63
2018-09-20T00:39:33.989Z,7.20
2018-09-20T00:42:03.083Z,7.73
2018-09-20T00:44:32.946Z,8.10
2018-09-20T00:47:02.599Z,7.50
2018-09-20T00:49:32.145Z,7.20
2018-09-20T00:52:01.415Z,7.60
2018-09-20T00:54:30.338Z,7.90
2018-09-20T00:57:01.135Z,8.07
2018-09-20T00:59:30.154Z,8.57
2018-09-20T01:01:59.185Z,8.80
2018-09-20T01:04:29.107Z,7.80
2018-09-20T01:07:01.340Z,8.80
2018-09-20T01:09:30.280Z,8.03
2018-09-20T01:12:00.044Z,7.77
2018-09-20T01:14:29.270Z,8.30
2018-09-20T01:16:58.918Z,7.60
2018-09-20T01:19:28.916Z,8.50
2018-09-20T01:21:59.318Z,8.73
2018-09-20T01:24:28.120Z,8.70
2018-09-20T01:26:58.224Z,8.83
2018-09-20T01:29:27.095Z,7.97
2018-09-20T01:31:56.104Z,9.20
2018-09-20T01:34:26.506Z,9.43
2018-09-20T01:36:55.400Z,8.60
2018-09-20T01:39:25.252Z,9.57
2018-09-20T01:41:54.903Z,8.20
2018-09-20T01:44:24.805Z,8.57
2018-09-20T01:46:54.527Z,7.80
2018-09-20T01:49:26.511Z,8.30
2018-09-20T01:51:56.184Z,7.40
2018-09-20T01:54:25.196Z,9.00
2018-09-20T01:56:55.655Z,8.67
2018-09-20T01:59:24.551Z,8.60
2018-09-20T02:01:53.417Z,9.70
2018-09-20T02:04:23.304Z,8.53
2018-09-20T02:06:54.307Z,8.90
2018-09-20T02:09:24.179Z,7.93
2018-09-20T02:11:53.398Z,8.73
2018-09-20T02:14:23.374Z,9.47
2018-09-20T02:16:52.246Z,9.73
2018-09-20T02:19:22.100Z,9.67
2018-09-20T02:21:51.169Z,9.47
2018-09-20T02:24:20.806Z,8.93
2018-09-20T02:26:50.068Z,8.90
2018-09-20T02:29:19.066Z,8.93
2018-09-20T02:34:23.669Z,9.80
2018-09-20T02:36:52.653Z,8.57
2018-09-20T02:39:22.551Z,9.63
2018-09-20T02:41:52.536Z,8.80
2018-09-20T02:44:22.130Z,9.00
2018-09-20T02:46:52.159Z,9.40
2018-09-20T02:49:21.646Z,9.83
2018-09-20T02:51:50.538Z,9.00
2018-09-20T02:54:20.388Z,9.43
2018-09-20T02:56:49.660Z,8.50
2018-09-20T02:59:18.570Z,9.10
2018-09-20T03:01:47.646Z,8.77
2018-09-20T03:04:16.695Z,9.20
2018-09-20T03:06:45.570Z,9.50
2018-09-20T03:09:14.873Z,9.60
2018-09-20T03:11:43.986Z,9.20
2018-09-20T03:14:14.137Z,9.10
2018-09-20T03:16:43.755Z,9.33
2018-09-20T03:19:13.611Z,8.17
2018-09-20T03:21:43.705Z,8.87
2018-09-20T03:24:12.818Z,9.00
2018-09-20T03:26:43.065Z,9.13
2018-09-20T03:29:11.824Z,9.20
2018-09-20T03:31:41.466Z,8.30
2018-09-20T03:34:13.498Z,8.90
2018-09-20T03:36:42.520Z,8.57
2018-09-20T03:39:12.579Z,8.83
2018-09-20T03:41:41.600Z,9.97
2018-09-20T03:44:12.178Z,9.07
2018-09-20T03:46:43.248Z,9.50
2018-09-20T03:49:12.236Z,10.03
2018-09-20T03:51:41.240Z,9.10
2018-09-20T03:54:10.875Z,8.90
2018-09-20T03:56:41.294Z,9.60
2018-09-20T03:59:10.365Z,10.53
2018-09-20T04:01:39.894Z,9.53
2018-09-20T04:04:10.435Z,9.40
2018-09-20T04:06:39.463Z,9.40
2018-09-20T04:09:11.081Z,9.60
2018-09-20T04:11:40.387Z,9.37
2018-09-20T04:14:09.370Z,8.47
2018-09-20T04:16:39.710Z,9.20
2018-09-20T04:19:08.609Z,8.83
2018-09-20T04:21:37.911Z,9.20
2018-09-20T04:24:07.358Z,9.47
2018-09-20T04:26:37.375Z,10.00
2018-09-20T04:29:07.429Z,8.73
2018-09-20T04:31:39.531Z,9.70
2018-09-20T04:34:08.521Z,9.20
2018-09-20T04:36:37.501Z,8.83
2018-09-20T04:39:10.077Z,8.80
2018-09-20T04:41:39.673Z,9.23
2018-09-20T04:44:08.501Z,10.10
2018-09-20T04:46:37.631Z,8.73
2018-09-20T04:49:06.617Z,9.83
2018-09-20T04:51:35.596Z,9.37
2018-09-20T04:54:04.646Z,9.53
2018-09-20T04:56:33.666Z,9.20
2018-09-20T04:59:04.973Z,9.50
2018-09-20T05:01:33.980Z,9.37
2018-09-20T05:04:03.602Z,9.30
2018-09-20T05:06:32.440Z,10.37
2018-09-20T05:09:01.468Z,10.50
2018-09-20T05:11:30.492Z,10.13
2018-09-20T05:13:59.516Z,9.00
2018-09-20T05:16:31.173Z,8.77
2018-09-20T05:19:01.124Z,9.33
2018-09-20T05:21:31.093Z,10.13
2018-09-20T05:23:59.918Z,10.50
2018-09-20T05:26:29.125Z,10.53
2018-09-20T05:28:58.611Z,10.30
2018-09-20T05:31:27.470Z,9.53
2018-09-20T05:33:58.191Z,10.27
2018-09-20T05:36:28.295Z,9.87
2018-09-20T05:38:57.759Z,9.43
2018-09-20T05:41:28.124Z,9.73
2018-09-20T05:43:57.985Z,8.97
2018-09-20T05:46:26.897Z,10.70
2018-09-20T05:48:56.049Z,9.73
2018-09-20T05:51:25.578Z,10.17
2018-09-20T05:53:55.566Z,8.80
2018-09-20T05:56:27.230Z,10.00
2018-09-20T05:58:56.104Z,8.97
2018-09-20T06:01:25.002Z,10.13
2018-09-20T06:03:56.162Z,9.50
2018-09-20T06:06:25.912Z,10.50
2018-09-20T06:08:58.290Z,9.77
2018-09-20T06:11:27.950Z,9.23
2018-09-20T06:13:57.569Z,9.90
2018-09-20T06:16:26.490Z,9.50
2018-09-20T06:21:38.327Z,9.33
2018-09-20T06:24:09.864Z,8.30
2018-09-20T06:26:39.338Z,9.60
2018-09-20T06:29:10.994Z,10.10
2018-09-20T06:31:39.928Z,10.87
2018-09-20T06:34:09.680Z,9.67
2018-09-20T06:36:38.683Z,9.73
2018-09-20T06:39:10.622Z,9.23
2018-09-20T06:41:40.732Z,9.73
2018-09-20T06:44:10.198Z,9.30
2018-09-20T06:46:38.948Z,9.50
2018-09-20T06:49:08.721Z,9.20
2018-09-20T06:51:38.977Z,9.00
2018-09-20T06:54:08.779Z,9.50
2018-09-20T06:56:39.144Z,9.70
2018-09-20T06:59:07.980Z,9.50
2018-09-20T07:01:38.063Z,9.60
2018-09-20T07:04:08.023Z,9.60
2018-09-20T07:06:37.616Z,9.20
2018-09-20T07:09:12.517Z,9.17
2018-09-20T07:11:45.200Z,10.07
2018-09-20T07:14:15.166Z,9.97
2018-09-20T07:16:44.127Z,8.77
2018-09-20T07:19:15.198Z,8.70
2018-09-20T07:21:46.939Z,8.67
2018-09-20T07:24:16.880Z,8.63
2018-09-20T07:26:45.722Z,9.20
2018-09-20T07:29:15.552Z,8.80
2018-09-20T07:31:46.698Z,7.97
2018-09-20T07:34:15.421Z,9.37
2018-09-20T07:36:46.240Z,7.80
2018-09-20T07:39:15.257Z,7.23
2018-09-20T07:41:44.134Z,8.03
2018-09-20T07:44:12.909Z,8.00
2018-09-20T07:46:41.720Z,8.47
2018-09-20T07:49:10.843Z,7.67
2018-09-20T07:51:39.839Z,8.10
2018-09-20T07:54:08.977Z,8.80
2018-09-20T07:56:38.154Z,7.73
2018-09-20T07:59:06.969Z,6.90
2018-09-20T08:01:35.699Z,7.70
2018-09-20T08:04:04.550Z,7.30
2018-09-20T08:06:36.084Z,8.20
2018-09-20T08:09:10.894Z,7.87
2018-09-20T08:11:42.009Z,6.97
2018-09-20T08:14:10.827Z,6.90
2018-09-20T08:16:39.684Z,6.90
2018-09-20T08:19:09.410Z,7.10
2018-09-20T08:21:38.338Z,7.00
2018-09-20T08:24:07.188Z,7.00
2018-09-20T08:26:36.680Z,6.67
2018-09-20T08:29:06.294Z,6.30
2018-09-20T08:31:35.135Z,6.93
2018-09-20T08:34:04.930Z,6.93
2018-09-20T08:36:33.743Z,6.90
2018-09-20T08:39:03.505Z,6.70
2018-09-20T08:41:32.409Z,6.50
2018-09-20T08:44:01.551Z,7.03
2018-09-20T08:46:30.256Z,6.50
2018-09-20T08:48:59.072Z,6.50
2018-09-20T08:51:29.656Z,6.50
2018-09-20T08:53:58.510Z,6.20
2018-09-20T08:56:27.956Z,6.57
2018-09-20T08:58:56.724Z,6.20
2018-09-20T09:01:25.472Z,6.00
2018-09-20T09:03:55.359Z,7.03
2018-09-20T09:06:26.195Z,5.90
2018-09-20T09:08:55.272Z,5.37
2018-09-20T09:11:24.817Z,5.00
2018-09-20T09:13:53.557Z,5.47
2018-09-20T09:16:22.315Z,6.27
2018-09-20T09:18:51.902Z,5.40
2018-09-20T09:21:21.013Z,5.03
2018-09-20T09:23:49.937Z,6.00
2018-09-20T09:26:26.251Z,5.53
2018-09-20T09:28:58.786Z,4.93
2018-09-20T09:31:27.684Z,5.73
2018-09-20T09:37:22.407Z,5.70
2018-09-20T09:39:51.257Z,4.80
2018-09-20T09:42:21.000Z,4.50
2018-09-20T09:44:50.123Z,5.80
2018-09-20T09:47:19.051Z,5.27
2018-09-20T09:49:48.009Z,5.13
2018-09-20T09:52:16.797Z,4.60
2018-09-20T09:54:45.688Z,5.47
2018-09-20T09:57:13.613Z,4.30
2018-09-20T09:59:42.157Z,4.30
2018-09-20T10:02:10.860Z,5.23
2018-09-20T10:04:40.788Z,6.27
2018-09-20T10:07:14.370Z,4.70
2018-09-20T10:09:44.618Z,5.17
2018-09-20T10:12:13.436Z,4.47
2018-09-20T10:14:42.206Z,4.97
2018-09-20T10:17:10.993Z,4.30
2018-09-20T10:19:40.871Z,4.20
2018-09-20T10:22:10.388Z,4.33
2018-09-20T10:24:39.261Z,4.60
2018-09-20T10:27:08.039Z,4.57
2018-09-20T10:29:36.831Z,4.53
2018-09-20T10:32:06.135Z,4.20
2018-09-20T10:34:37.497Z,5.00
2018-09-20T10:37:08.877Z,4.93
2018-09-20T10:39:37.475Z,4.13
2018-09-20T10:42:06.214Z,4.10
2018-09-20T10:44:35.106Z,4.43
2018-09-20T10:47:03.989Z,7.07
2018-09-20T10:49:32.721Z,5.37
2018-09-20T10:52:01.574Z,4.70
2018-09-20T10:54:30.327Z,4.23
2018-09-20T10:56:59.763Z,3.93
2018-09-20T10:59:28.524Z,4.53
2018-09-20T11:01:57.367Z,4.87
2018-09-20T11:04:26.004Z,5.27
2018-09-20T11:06:55.309Z,5.37
2018-09-20T11:09:23.889Z,4.80
2018-09-20T11:11:52.604Z,4.37
2018-09-20T11:14:21.310Z,5.20
2018-09-20T11:16:50.279Z,4.50
2018-09-20T11:19:19.202Z,5.60
2018-09-20T11:21:47.882Z,5.20
2018-09-20T11:24:16.542Z,4.53
2018-09-20T11:26:45.184Z,4.27
2018-09-20T11:29:13.915Z,5.60
2018-09-20T11:31:42.511Z,4.93
2018-09-20T11:34:11.627Z,4.50
2018-09-20T11:36:41.015Z,4.43
2018-09-20T11:39:11.886Z,4.40
2018-09-20T11:41:40.654Z,4.33
2018-09-20T11:44:09.769Z,5.43
2018-09-20T11:46:38.538Z,4.73
2018-09-20T11:49:08.356Z,4.70
2018-09-20T11:51:37.399Z,4.43
2018-09-20T11:54:06.311Z,4.63
2018-09-20T11:56:36.236Z,4.33
2018-09-20T11:59:05.520Z,3.73
2018-09-20T12:01:34.346Z,4.00
2018-09-20T12:04:03.023Z,4.17
2018-09-20T12:06:31.735Z,3.67
2018-09-20T12:09:00.395Z,4.40
2018-09-20T12:11:29.086Z,4.50
2018-09-20T12:13:58.160Z,3.87
2018-09-20T12:16:27.025Z,4.70
2018-09-20T12:18:55.793Z,3.37
2018-09-20T12:21:24.887Z,3.77
2018-09-20T12:23:53.480Z,3.80
2018-09-20T12:26:22.472Z,4.60
2018-09-20T12:28:51.055Z,3.40
2018-09-20T12:31:19.707Z,3.73
2018-09-20T12:33:48.589Z,4.23
2018-09-20T12:36:17.276Z,3.33
2018-09-20T12:38:46.081Z,3.90
2018-09-20T12:41:14.910Z,4.20
2018-09-20T12:43:44.403Z,3.50
2018-09-20T12:46:13.123Z,3.80
2018-09-20T12:48:41.723Z,3.43
2018-09-20T12:51:10.579Z,3.50
2018-09-20T12:53:39.200Z,3.40
2018-09-20T12:56:07.991Z,3.33
2018-09-20T12:58:40.901Z,3.07
2018-09-20T13:01:09.811Z,3.47
2018-09-20T13:03:38.860Z,3.43
2018-09-20T13:06:07.804Z,4.10
2018-09-20T13:08:36.626Z,3.73
2018-09-20T13:11:05.412Z,3.63
2018-09-20T13:13:34.215Z,3.20
2018-09-20T13:16:03.004Z,2.90
2018-09-20T13:18:31.617Z,2.77
2018-09-20T13:21:00.773Z,3.13
2018-09-20T13:23:29.447Z,3.57
2018-09-20T13:25:58.279Z,3.30
2018-09-20T13:28:26.889Z,3.10
2018-09-20T13:30:55.633Z,3.33
2018-09-20T13:33:24.203Z,3.07
2018-09-20T13:35:52.940Z,3.10
2018-09-20T13:38:21.704Z,3.63
2018-09-20T13:40:50.354Z,3.07
2018-09-20T13:43:20.262Z,3.00
2018-09-20T13:45:49.151Z,3.23
2018-09-20T13:48:17.835Z,3.10
2018-09-20T13:50:48.274Z,3.73
2018-09-20T13:53:17.715Z,3.10
2018-09-20T13:55:46.418Z,2.40
2018-09-20T13:58:15.152Z,2.87
2018-09-20T14:00:43.803Z,3.10
2018-09-20T14:03:12.513Z,2.90
2018-09-20T14:05:42.131Z,3.30
2018-09-20T14:08:10.715Z,2.93
2018-09-20T14:10:39.563Z,3.10
2018-09-20T14:13:08.335Z,3.20
2018-09-20T14:15:37.141Z,2.40
2018-09-20T14:18:05.748Z,2.77
2018-09-20T14:20:34.560Z,2.70
2018-09-20T14:23:03.379Z,2.57
2018-09-20T14:25:31.983Z,3.00
2018-09-20T14:28:00.861Z,3.20
2018-09-20T14:30:30.384Z,2.80
2018-09-20T14:32:59.138Z,3.20
2018-09-20T14:35:28.600Z,3.40
2018-09-20T14:37:57.418Z,3.10
2018-09-20T14:40:26.412Z,3.00
2018-09-20T14:42:55.292Z,2.93
2018-09-20T14:45:24.192Z,2.50
2018-09-20T14:47:53.783Z,2.70
2018-09-20T14:50:22.577Z,3.00
2018-09-20T14:52:51.163Z,3.10
2018-09-20T14:55:19.739Z,3.37
2018-09-20T14:57:48.537Z,3.10
2018-09-20T15:00:17.433Z,2.70
2018-09-20T15:02:46.457Z,4.00
2018-09-20T15:05:15.297Z,2.90
2018-09-20T15:07:44.805Z,2.63
2018-09-20T15:10:14.917Z,2.57
2018-09-20T15:12:44.037Z,3.00
2018-09-20T15:15:13.156Z,3.13
2018-09-20T15:17:42.148Z,2.70
2018-09-20T15:20:11.850Z,3.30
2018-09-20T15:22:40.876Z,2.63
2018-09-20T15:25:09.854Z,3.20
2018-09-20T15:27:39.412Z,2.43
2018-09-20T15:30:11.083Z,2.53
2018-09-20T15:32:39.871Z,2.60
2018-09-20T15:35:08.442Z,2.90
2018-09-20T15:37:37.520Z,2.57
2018-09-20T15:40:06.570Z,2.53
2018-09-20T15:42:36.622Z,2.90
2018-09-20T15:45:05.570Z,2.83
2018-09-20T15:47:34.669Z,3.20
2018-09-20T15:50:03.481Z,2.53
2018-09-20T15:52:32.094Z,2.33
2018-09-20T15:55:01.071Z,3.00
2018-09-20T15:57:29.766Z,2.80
2018-09-20T15:59:58.342Z,2.83
2018-09-20T16:02:27.143Z,3.17
2018-09-20T16:04:55.724Z,3.20
2018-09-20T16:07:24.326Z,3.10
2018-09-20T16:09:52.897Z,2.80
2018-09-20T16:12:21.657Z,2.80
2018-09-20T16:14:50.271Z,3.10
2018-09-20T16:17:18.907Z,2.70
2018-09-20T16:19:48.040Z,3.30
2018-09-20T16:22:16.721Z,3.10
2018-09-20T16:24:45.368Z,3.20
2018-09-20T16:27:13.923Z,2.53
2018-09-20T16:30:10.952Z,2.87
2018-09-20T16:33:12.963Z,2.83
2018-09-20T16:35:52.188Z,2.50
2018-09-20T16:38:41.291Z,2.80
2018-09-20T16:41:12.627Z,3.40
2018-09-20T16:43:41.365Z,3.27
2018-09-20T16:46:10.129Z,2.90
2018-09-20T16:48:39.141Z,3.03
2018-09-20T16:51:07.886Z,2.60
2018-09-20T16:53:36.800Z,2.60
2018-09-20T16:56:07.064Z,2.40
2018-09-20T16:58:35.892Z,2.60
2018-09-20T17:01:04.489Z,2.67
2018-09-20T17:03:33.348Z,3.30
2018-09-20T17:06:01.993Z,2.70
2018-09-20T17:08:30.891Z,2.57
2018-09-20T17:10:59.614Z,3.00
2018-09-20T17:13:28.621Z,3.40
2018-09-20T17:15:57.435Z,2.70
2018-09-20T17:18:26.506Z,2.97
2018-09-20T17:20:55.164Z,3.00
2018-09-20T17:23:24.025Z,2.40
2018-09-20T17:25:52.765Z,2.70
2018-09-20T17:28:21.311Z,2.90
2018-09-20T17:30:49.919Z,4.40
2018-09-20T17:33:18.564Z,3.13
2018-09-20T17:35:47.830Z,2.90
2018-09-20T17:38:19.379Z,2.80
2018-09-20T17:40:51.301Z,3.40
2018-09-20T17:43:23.170Z,2.90
2018-09-20T17:45:51.785Z,3.30
2018-09-20T17:48:20.463Z,3.30
2018-09-20T17:50:49.902Z,2.70
2018-09-20T17:53:19.117Z,3.10
2018-09-20T17:55:48.434Z,2.73
2018-09-20T17:58:17.809Z,2.90
2018-09-20T18:00:46.616Z,2.97
2018-09-20T18:03:15.730Z,3.83
2018-09-20T18:05:44.634Z,3.20
2018-09-20T18:08:13.567Z,2.93
2018-09-20T18:10:45.211Z,3.10
2018-09-20T18:13:15.104Z,2.90
2018-09-20T18:15:43.840Z,3.43
2018-09-20T18:18:13.387Z,3.30
2018-09-20T18:20:42.265Z,2.97
2018-09-20T18:23:11.063Z,3.70
2018-09-20T18:25:39.833Z,3.33
2018-09-20T18:28:09.187Z,3.13
2018-09-20T18:30:38.034Z,3.57
2018-09-20T18:33:06.983Z,3.37
2018-09-20T18:35:35.842Z,3.60
2018-09-20T18:38:04.998Z,3.97
2018-09-20T18:40:33.922Z,3.87
2018-09-20T18:43:03.356Z,3.83
2018-09-20T18:45:32.020Z,3.03
2018-09-20T18:48:00.897Z,3.10
2018-09-20T18:50:30.225Z,3.40
2018-09-20T18:52:59.357Z,3.60
2018-09-20T18:55:28.140Z,3.53
2018-09-20T18:57:56.894Z,3.13
2018-09-20T19:00:25.791Z,3.10
2018-09-20T19:02:54.516Z,3.47
2018-09-20T19:05:23.548Z,3.93
2018-09-20T19:07:52.400Z,3.20
2018-09-20T19:10:23.557Z,3.43
2018-09-20T19:12:52.431Z,3.90
2018-09-20T19:15:21.237Z,3.10
2018-09-20T19:17:50.007Z,3.33
2018-09-20T19:20:19.507Z,3.10
2018-09-20T19:22:48.221Z,3.70
2018-09-20T19:25:16.822Z,3.67
2018-09-20T19:27:46.053Z,3.30
2018-09-20T19:30:14.936Z,3.30
2018-09-20T19:32:43.712Z,3.53
2018-09-20T19:35:12.337Z,3.60
2018-09-20T19:37:40.990Z,3.70
2018-09-20T19:40:09.634Z,4.03
2018-09-20T19:42:38.874Z,3.60
2018-09-20T19:45:07.571Z,4.67
2018-09-20T19:47:36.297Z,4.13
2018-09-20T19:50:05.770Z,4.20
2018-09-20T19:52:34.646Z,3.70
2018-09-20T19:55:03.299Z,3.43
2018-09-20T19:57:31.933Z,4.30
2018-09-20T20:00:00.752Z,3.77
2018-09-20T20:02:29.519Z,3.93
2018-09-20T20:04:58.253Z,3.57
2018-09-20T20:07:27.172Z,4.33
2018-09-20T20:09:56.528Z,3.63
2018-09-20T20:12:25.319Z,3.27
2018-09-20T20:14:54.259Z,3.53
2018-09-20T20:17:23.231Z,4.00
2018-09-20T20:19:51.980Z,3.90
2018-09-20T20:22:20.760Z,4.60
2018-09-20T20:24:49.832Z,3.83
2018-09-20T20:27:18.765Z,4.20
2018-09-20T20:29:47.608Z,4.30
2018-09-20T20:32:16.990Z,4.43
2018-09-20T20:34:46.085Z,3.83
2018-09-20T20:37:15.457Z,3.70
2018-09-20T20:39:44.471Z,3.33
2018-09-20T20:42:13.624Z,3.77
2018-09-20T20:44:43.472Z,3.60
2018-09-20T20:47:12.374Z,3.80
2018-09-20T20:49:41.358Z,4.27
2018-09-20T20:52:11.364Z,4.20
2018-09-20T20:54:40.358Z,3.80
2018-09-20T20:57:09.298Z,3.60
2018-09-20T20:59:38.761Z,3.20
2018-09-20T21:02:07.644Z,3.37
2018-09-20T21:04:36.691Z,3.60
2018-09-20T21:07:05.586Z,3.70
2018-09-20T21:09:34.409Z,3.83
2018-09-20T21:12:04.223Z,3.50
2018-09-20T21:14:33.461Z,3.70
2018-09-20T21:17:02.384Z,3.60
2018-09-20T21:19:31.460Z,3.33
2018-09-20T21:22:02.194Z,3.10
2018-09-20T21:24:31.176Z,4.23
2018-09-20T21:27:00.088Z,3.60
2018-09-20T21:29:29.004Z,3.80
2018-09-20T21:31:57.894Z,3.63
2018-09-20T21:34:26.830Z,3.70
2018-09-20T21:36:55.962Z,4.13
2018-09-20T21:39:24.642Z,4.00
2018-09-20T21:41:54.480Z,3.53
2018-09-20T21:44:24.103Z,4.00
2018-09-20T21:46:52.923Z,4.43
2018-09-20T21:49:21.672Z,3.80
2018-09-20T21:51:50.482Z,3.30
2018-09-20T21:54:19.318Z,3.40
2018-09-20T21:56:48.370Z,3.97
2018-09-20T21:59:17.231Z,3.77
2018-09-20T22:01:51.621Z,3.50
2018-09-20T22:04:21.346Z,3.57
2018-09-20T22:06:50.483Z,3.23
2018-09-20T22:09:19.570Z,3.57
2018-09-20T22:11:48.679Z,3.10
2018-09-20T22:14:17.572Z,3.07
2018-09-20T22:16:46.557Z,3.30
2018-09-20T22:19:16.863Z,3.60
2018-09-20T22:21:45.731Z,2.90
2018-09-20T22:24:14.633Z,3.30
2018-09-20T22:26:44.583Z,3.60
2018-09-20T22:29:13.607Z,2.90
2018-09-20T22:31:43.222Z,3.03
2018-09-20T22:34:12.001Z,2.90
2018-09-20T22:36:40.854Z,3.13
2018-09-20T22:39:12.476Z,3.00
2018-09-20T22:41:41.296Z,3.10
2018-09-20T22:44:11.227Z,3.70
2018-09-20T22:46:40.024Z,3.00
2018-09-20T22:49:08.830Z,3.50
2018-09-20T22:51:37.943Z,3.40
2018-09-20T22:54:10.318Z,3.23
2018-09-20T22:56:39.854Z,3.30
2018-09-20T22:59:08.670Z,3.50
2018-09-20T23:01:38.079Z,3.33
2018-09-20T23:04:07.091Z,3.80
2018-09-20T23:06:36.639Z,3.33
2018-09-20T23:09:11.151Z,3.90
2018-09-20T23:11:40.885Z,3.73
2018-09-20T23:14:11.477Z,2.83
2018-09-20T23:16:40.386Z,3.00
2018-09-20T23:19:09.809Z,3.00
2018-09-20T23:21:39.311Z,3.60
2018-09-20T23:24:08.136Z,3.23
2018-09-20T23:26:36.902Z,2.97
2018-09-20T23:29:05.717Z,3.43
2018-09-20T23:31:34.603Z,3.60
2018-09-20T23:34:04.418Z,3.43
2018-09-20T23:36:34.061Z,3.50
2018-09-20T23:39:03.005Z,3.40
2018-09-20T23:41:31.784Z,3.43
2018-09-20T23:44:02.039Z,3.40
2018-09-20T23:46:31.494Z,3.73
2018-09-20T23:49:00.555Z,3.93
2018-09-20T23:51:31.420Z,3.23
2018-09-20T23:54:00.350Z,3.63
2018-09-20T23:56:29.224Z,3.40
2018-09-20T23:58:58.421Z,3.60
